createdAt,value
2023-05-06T00:01:20.662Z,60.88
2023-05-06T00:03:58.991Z,60.56
2023-05-06T00:06:37.371Z,60.17
2023-05-06T00:09:16.117Z,59.73
2023-05-06T00:11:53.878Z,58.91
2023-05-06T00:14:31.672Z,58.90
2023-05-06T00:17:11.431Z,58.33
2023-05-06T00:19:49.822Z,58.32
2023-05-06T00:22:28.611Z,57.81
2023-05-06T00:25:07.418Z,57.71
2023-05-06T00:27:46.665Z,57.62
2023-05-06T00:30:25.825Z,57.45
2023-05-06T00:33:06.847Z,57.23
2023-05-06T00:35:43.674Z,56.91
2023-05-06T00:38:21.910Z,56.55
2023-05-06T00:40:53.754Z,56.54
2023-05-06T00:43:32.335Z,56.48
2023-05-06T00:46:15.427Z,56.24
2023-05-06T00:48:53.121Z,56.27
2023-05-06T00:51:32.990Z,56.05
2023-05-06T00:54:12.450Z,56.13
2023-05-06T00:56:50.787Z,55.96
2023-05-06T00:59:28.862Z,55.66
2023-05-06T01:02:07.538Z,55.67
2023-05-06T01:04:45.564Z,55.49
2023-05-06T01:08:00.195Z,55.71
2023-05-06T01:10:58.540Z,55.55
2023-05-06T01:13:59.399Z,55.38
2023-05-06T01:16:41.872Z,55.59
2023-05-06T01:19:50.860Z,55.18
2023-05-06T01:22:25.394Z,55.46
2023-05-06T01:24:55.632Z,55.47
2023-05-06T01:27:34.707Z,55.39
2023-05-06T01:30:08.111Z,55.29
2023-05-06T01:33:21.978Z,55.44
2023-05-06T01:36:35.570Z,55.26
2023-05-06T01:39:28.245Z,55.34
2023-05-06T01:42:08.058Z,55.49
2023-05-06T01:44:45.783Z,55.37
2023-05-06T01:47:22.251Z,55.52
2023-05-06T01:50:02.603Z,55.46
2023-05-06T01:52:41.598Z,55.68
2023-05-06T01:55:19.993Z,55.53
2023-05-06T01:57:58.858Z,55.50
2023-05-06T02:00:37.273Z,55.37
2023-05-06T02:03:15.857Z,55.51
2023-05-06T02:05:54.398Z,55.56
2023-05-06T02:08:34.058Z,55.47
2023-05-06T02:11:06.168Z,55.38
2023-05-06T02:13:36.506Z,55.55
2023-05-06T02:16:14.952Z,55.45
2023-05-06T02:18:53.592Z,55.32
2023-05-06T02:21:25.368Z,55.44
2023-05-06T02:24:04.275Z,55.57
2023-05-06T02:26:43.269Z,55.46
2023-05-06T02:29:21.712Z,55.56
2023-05-06T02:32:00.327Z,55.64
2023-05-06T02:34:39.027Z,55.71
2023-05-06T02:37:17.734Z,55.59
2023-05-06T02:39:56.712Z,55.64
2023-05-06T02:42:36.129Z,55.58
2023-05-06T02:45:15.217Z,55.70
2023-05-06T02:47:53.489Z,55.74
2023-05-06T02:50:32.529Z,55.74
2023-05-06T02:53:14.477Z,55.93
2023-05-06T02:55:52.077Z,55.77
2023-05-06T02:58:30.866Z,55.87
2023-05-06T03:01:10.722Z,55.81
2023-05-06T03:03:50.997Z,55.97
2023-05-06T03:06:30.854Z,56.00
2023-05-06T03:09:10.158Z,56.13
2023-05-06T03:11:43.234Z,56.13
2023-05-06T03:14:17.439Z,55.97
2023-05-06T03:16:56.255Z,55.82
2023-05-06T03:19:35.794Z,55.96
2023-05-06T03:22:10.131Z,55.99
2023-05-06T03:24:49.418Z,55.89
2023-05-06T03:27:27.990Z,55.91
2023-05-06T03:30:07.214Z,55.99
2023-05-06T03:32:45.726Z,56.01
2023-05-06T03:35:25.035Z,55.86
2023-05-06T03:38:03.339Z,55.96
2023-05-06T03:40:42.767Z,55.82
2023-05-06T03:43:23.086Z,55.60
2023-05-06T03:46:01.920Z,55.76
2023-05-06T03:48:40.445Z,55.58
2023-05-06T03:51:18.565Z,55.78
2023-05-06T03:53:56.909Z,55.62
2023-05-06T03:56:34.812Z,55.40
2023-05-06T03:59:13.643Z,55.57
2023-05-06T04:01:52.473Z,55.56
2023-05-06T04:04:27.085Z,55.57
2023-05-06T04:06:58.835Z,55.63
2023-05-06T04:09:36.138Z,55.69
2023-05-06T04:12:14.659Z,55.68
2023-05-06T04:14:52.627Z,55.87
2023-05-06T04:17:31.551Z,55.91
2023-05-06T04:20:07.922Z,55.79
2023-05-06T04:22:46.754Z,55.81
2023-05-06T04:25:25.099Z,55.84
2023-05-06T04:28:03.536Z,55.80
2023-05-06T04:30:42.166Z,56.19
2023-05-06T04:33:21.144Z,56.24
2023-05-06T04:36:01.010Z,56.49
2023-05-06T04:38:42.817Z,56.65
2023-05-06T04:41:23.979Z,57.02
2023-05-06T04:44:04.100Z,56.69
2023-05-06T04:46:42.552Z,56.78
2023-05-06T04:49:21.153Z,56.70
2023-05-06T04:52:00.071Z,57.02
2023-05-06T04:54:39.004Z,56.86
2023-05-06T04:57:17.704Z,56.97
2023-05-06T04:59:55.865Z,57.17
2023-05-06T05:02:34.183Z,56.81
2023-05-06T05:05:13.400Z,57.00
2023-05-06T05:07:47.379Z,57.14
2023-05-06T05:10:20.839Z,57.30
2023-05-06T05:12:59.403Z,57.37
2023-05-06T05:15:39.908Z,57.52
2023-05-06T05:18:18.326Z,57.56
2023-05-06T05:20:57.300Z,57.60
2023-05-06T05:23:36.224Z,57.51
2023-05-06T05:26:15.315Z,57.33
2023-05-06T05:28:54.932Z,57.42
2023-05-06T05:31:33.536Z,57.57
2023-05-06T05:34:12.804Z,57.32
2023-05-06T05:36:43.116Z,57.82
2023-05-06T05:39:17.321Z,57.65
2023-05-06T05:41:55.701Z,57.45
2023-05-06T05:44:34.432Z,57.29
2023-05-06T05:47:04.673Z,57.34
2023-05-06T05:49:41.799Z,57.56
2023-05-06T05:52:21.402Z,57.76
2023-05-06T05:55:00.151Z,57.50
2023-05-06T05:57:39.251Z,56.98
2023-05-06T06:00:19.071Z,57.14
2023-05-06T06:02:54.143Z,56.72
2023-05-06T06:05:32.812Z,57.11
2023-05-06T06:08:12.641Z,57.15
2023-05-06T06:10:52.078Z,57.39
2023-05-06T06:13:30.779Z,56.82
2023-05-06T06:16:10.819Z,56.35
2023-05-06T06:18:50.238Z,56.29
2023-05-06T06:21:29.617Z,55.91
2023-05-06T06:24:08.964Z,55.37
2023-05-06T06:26:48.556Z,54.20
2023-05-06T06:29:28.176Z,54.02
2023-05-06T06:32:09.743Z,53.37
2023-05-06T06:34:41.775Z,52.57
2023-05-06T06:37:20.893Z,51.23
2023-05-06T06:40:00.114Z,51.12
2023-05-06T06:42:39.908Z,50.85
2023-05-06T06:45:22.881Z,49.97
2023-05-06T06:48:03.381Z,49.48
2023-05-06T06:50:44.232Z,48.82
2023-05-06T06:53:24.263Z,48.83
2023-05-06T06:56:03.748Z,48.44
2023-05-06T06:58:42.552Z,47.69
2023-05-06T07:01:22.124Z,47.89
2023-05-06T07:04:01.747Z,47.14
2023-05-06T07:06:41.496Z,47.14
2023-05-06T07:09:20.449Z,46.33
2023-05-06T07:11:59.950Z,45.80
2023-05-06T07:14:39.467Z,45.88
2023-05-06T07:17:18.968Z,44.50
2023-05-06T07:19:58.393Z,43.93
2023-05-06T07:22:37.924Z,44.50
2023-05-06T07:25:18.759Z,44.01
2023-05-06T07:27:58.565Z,44.29
2023-05-06T07:30:31.647Z,43.70
2023-05-06T07:33:05.995Z,43.29
2023-05-06T07:35:44.747Z,42.94
2023-05-06T07:38:24.998Z,42.90
2023-05-06T07:41:05.153Z,42.38
2023-05-06T07:43:44.061Z,41.66
2023-05-06T07:46:23.238Z,42.11
2023-05-06T07:49:02.696Z,42.19
2023-05-06T07:51:42.284Z,42.34
2023-05-06T07:54:15.653Z,42.38
2023-05-06T07:56:52.806Z,42.27
2023-05-06T07:59:32.248Z,41.83
2023-05-06T08:02:13.156Z,40.91
2023-05-06T08:04:53.241Z,40.24
2023-05-06T08:07:32.057Z,40.51
2023-05-06T08:10:15.849Z,39.96
2023-05-06T08:12:50.850Z,40.25
2023-05-06T08:15:29.416Z,40.73
2023-05-06T08:18:20.749Z,40.15
2023-05-06T08:20:54.970Z,39.91
2023-05-06T08:23:35.404Z,40.14
2023-05-06T08:26:14.747Z,39.96
2023-05-06T08:28:55.720Z,40.11
2023-05-06T08:31:39.931Z,39.59
2023-05-06T08:34:24.335Z,39.38
2023-05-06T08:37:03.515Z,39.12
2023-05-06T08:39:47.234Z,39.45
2023-05-06T08:42:27.075Z,39.47
2023-05-06T08:45:07.510Z,39.14
2023-05-06T08:47:46.688Z,38.66
2023-05-06T08:50:26.547Z,38.85
2023-05-06T08:53:06.509Z,38.85
2023-05-06T08:55:38.272Z,38.71
2023-05-06T08:58:19.127Z,38.98
2023-05-06T09:00:59.473Z,38.97
2023-05-06T09:03:38.990Z,38.57
2023-05-06T09:06:18.050Z,38.79
2023-05-06T09:08:56.668Z,38.46
2023-05-06T09:11:39.407Z,37.93
2023-05-06T09:14:18.552Z,37.46
2023-05-06T09:16:57.976Z,37.46
2023-05-06T09:19:39.810Z,37.49
2023-05-06T09:22:19.734Z,37.09
2023-05-06T09:25:02.146Z,36.85
2023-05-06T09:27:40.911Z,36.67
2023-05-06T09:30:21.210Z,36.78
2023-05-06T09:32:59.096Z,36.76
2023-05-06T09:35:46.290Z,36.48
2023-05-06T09:38:26.103Z,35.95
2023-05-06T09:41:06.786Z,35.93
2023-05-06T09:43:49.810Z,35.64
2023-05-06T09:46:28.654Z,35.62
2023-05-06T09:49:08.872Z,35.77
2023-05-06T09:51:52.147Z,35.42
2023-05-06T09:54:29.615Z,35.50
2023-05-06T09:57:07.667Z,35.63
2023-05-06T09:59:49.106Z,35.79
2023-05-06T10:02:29.127Z,35.68
2023-05-06T10:05:10.751Z,35.87
2023-05-06T10:07:50.191Z,36.20
2023-05-06T10:10:29.936Z,36.14
2023-05-06T10:13:10.516Z,36.10
2023-05-06T10:15:50.442Z,36.12
2023-05-06T10:18:30.437Z,35.98
2023-05-06T10:21:14.185Z,35.98
2023-05-06T10:24:07.953Z,35.87
2023-05-06T10:26:45.958Z,36.29
2023-05-06T10:29:27.653Z,36.52
2023-05-06T10:32:09.588Z,36.42
2023-05-06T10:34:55.982Z,36.53
2023-05-06T10:37:36.812Z,36.56
2023-05-06T10:40:16.539Z,37.12
2023-05-06T10:43:14.078Z,37.67
2023-05-06T10:46:14.844Z,38.62
2023-05-06T10:49:12.691Z,39.30
2023-05-06T10:51:44.668Z,40.15
2023-05-06T10:54:27.551Z,40.13
2023-05-06T10:57:11.237Z,40.29
2023-05-06T10:59:51.132Z,40.30
2023-05-06T11:02:31.878Z,40.69
2023-05-06T11:05:11.583Z,40.73
2023-05-06T11:07:52.408Z,40.81
2023-05-06T11:10:34.721Z,40.81
2023-05-06T11:13:36.596Z,41.11
2023-05-06T11:16:50.012Z,41.45
2023-05-06T11:19:30.395Z,40.24
2023-05-06T11:22:31.417Z,40.21
2023-05-06T11:25:11.853Z,40.29
2023-05-06T11:27:50.941Z,40.69
2023-05-06T11:30:32.426Z,40.51
2023-05-06T11:33:27.043Z,40.81
2023-05-06T11:36:08.082Z,40.78
2023-05-06T11:38:59.982Z,41.03
2023-05-06T11:41:52.831Z,41.79
2023-05-06T11:44:32.819Z,41.61
2023-05-06T11:47:09.928Z,42.00
2023-05-06T11:49:54.924Z,42.32
2023-05-06T11:52:33.167Z,42.65
2023-05-06T11:55:16.695Z,43.52
2023-05-06T11:57:54.374Z,44.30
2023-05-06T12:00:31.083Z,44.44
2023-05-06T12:03:04.574Z,43.67
2023-05-06T12:05:46.156Z,44.28
2023-05-06T12:08:28.107Z,44.30
2023-05-06T12:11:13.223Z,44.22
2023-05-06T12:13:52.746Z,45.73
2023-05-06T12:16:29.894Z,45.19
2023-05-06T12:19:06.258Z,46.19
2023-05-06T12:21:49.209Z,47.09
2023-05-06T12:24:34.037Z,46.94
2023-05-06T12:27:13.008Z,47.91
2023-05-06T12:29:54.485Z,48.10
2023-05-06T12:32:33.649Z,48.16
2023-05-06T12:35:08.026Z,49.29
2023-05-06T12:37:47.942Z,49.21
2023-05-06T12:40:27.782Z,50.21
2023-05-06T12:43:07.037Z,49.48
2023-05-06T12:45:46.864Z,49.68
2023-05-06T12:48:19.708Z,52.06
2023-05-06T12:50:59.029Z,51.02
2023-05-06T12:53:41.360Z,51.89
2023-05-06T12:56:22.008Z,51.62
2023-05-06T12:59:08.420Z,52.09
2023-05-06T13:01:46.809Z,52.91
2023-05-06T13:04:19.028Z,53.95
2023-05-06T13:07:00.199Z,53.71
2023-05-06T13:09:39.970Z,54.62
2023-05-06T13:12:18.808Z,55.04
2023-05-06T13:14:58.123Z,55.51
2023-05-06T13:17:34.213Z,55.58
2023-05-06T13:20:15.487Z,56.53
2023-05-06T13:22:55.401Z,57.58
2023-05-06T13:25:39.743Z,58.10
2023-05-06T13:28:28.002Z,58.32
2023-05-06T13:31:07.312Z,59.20
2023-05-06T13:33:47.286Z,59.41
2023-05-06T13:36:27.502Z,61.44
2023-05-06T13:39:06.503Z,61.32
2023-05-06T13:41:50.691Z,62.95
2023-05-06T13:44:30.816Z,62.28
2023-05-06T13:47:11.053Z,63.46
2023-05-06T13:49:51.346Z,64.24
2023-05-06T13:52:31.613Z,64.74
2023-05-06T13:55:12.680Z,64.53
2023-05-06T13:57:49.404Z,65.50
2023-05-06T14:00:29.607Z,65.77
2023-05-06T14:03:08.006Z,66.12
2023-05-06T14:05:46.793Z,67.27
2023-05-06T14:08:26.129Z,67.54
2023-05-06T14:10:57.706Z,67.88
2023-05-06T14:13:37.706Z,68.15
2023-05-06T14:16:21.694Z,68.47
2023-05-06T14:19:01.388Z,68.82
2023-05-06T14:21:40.531Z,68.86
2023-05-06T14:24:15.176Z,68.77
2023-05-06T14:26:54.344Z,69.35
2023-05-06T14:29:33.240Z,69.67
2023-05-06T14:32:10.113Z,69.96
2023-05-06T14:34:40.708Z,70.25
2023-05-06T14:37:18.474Z,70.40
2023-05-06T14:39:58.196Z,70.46
2023-05-06T14:42:37.523Z,70.84
2023-05-06T14:45:17.453Z,70.86
2023-05-06T14:47:52.701Z,71.94
2023-05-06T14:50:32.181Z,71.04
2023-05-06T14:53:11.643Z,71.10
2023-05-06T14:55:50.606Z,71.26
2023-05-06T14:58:22.526Z,71.18
2023-05-06T15:01:01.964Z,71.13
2023-05-06T15:03:41.031Z,71.38
2023-05-06T15:06:20.155Z,71.37
2023-05-06T15:08:59.850Z,71.59
2023-05-06T15:11:39.208Z,72.30
2023-05-06T15:14:13.274Z,72.29
2023-05-06T15:16:43.727Z,72.02
2023-05-06T15:19:19.933Z,72.55
2023-05-06T15:21:58.337Z,72.54
2023-05-06T15:24:36.873Z,73.31
2023-05-06T15:27:16.834Z,73.75
2023-05-06T15:29:55.541Z,73.30
2023-05-06T15:32:35.336Z,74.30
2023-05-06T15:35:14.524Z,74.33
2023-05-06T15:38:01.448Z,74.12
2023-05-06T15:40:45.516Z,73.83
2023-05-06T15:43:22.867Z,73.80
2023-05-06T15:46:00.589Z,73.83
2023-05-06T15:48:39.993Z,74.03
2023-05-06T15:51:19.970Z,73.87
2023-05-06T15:53:58.616Z,74.09
2023-05-06T15:56:40.578Z,74.70
2023-05-06T15:59:20.595Z,74.51
2023-05-06T16:02:24.467Z,74.87
2023-05-06T16:04:58.389Z,74.64
2023-05-06T16:07:30.702Z,74.83
2023-05-06T16:10:11.053Z,74.96
2023-05-06T16:12:41.896Z,74.72
2023-05-06T16:15:21.932Z,74.74
2023-05-06T16:18:01.199Z,74.84
2023-05-06T16:20:35.268Z,74.49
2023-05-06T16:23:15.193Z,74.83
2023-05-06T16:25:55.092Z,74.63
2023-05-06T16:28:34.262Z,74.93
2023-05-06T16:31:13.863Z,75.23
2023-05-06T16:33:52.331Z,75.32
2023-05-06T16:36:31.804Z,74.93
2023-05-06T16:39:12.372Z,75.46
2023-05-06T16:41:51.784Z,75.26
2023-05-06T16:44:30.769Z,75.04
2023-05-06T16:47:08.804Z,75.44
2023-05-06T16:49:47.891Z,75.33
2023-05-06T16:52:30.682Z,75.24
2023-05-06T16:55:12.297Z,75.39
2023-05-06T16:57:51.406Z,75.33
2023-05-06T17:00:30.358Z,75.35
2023-05-06T17:03:02.968Z,76.06
2023-05-06T17:05:41.867Z,75.90
2023-05-06T17:08:12.234Z,76.04
2023-05-06T17:10:44.252Z,76.16
2023-05-06T17:13:23.822Z,76.56
2023-05-06T17:16:02.797Z,75.85
2023-05-06T17:18:40.866Z,76.56
2023-05-06T17:21:21.513Z,76.90
2023-05-06T17:24:01.670Z,78.16
2023-05-06T17:26:41.147Z,77.44
2023-05-06T17:29:22.533Z,76.99
2023-05-06T17:32:02.114Z,77.07
2023-05-06T17:34:41.509Z,77.32
2023-05-06T17:37:19.874Z,77.84
2023-05-06T17:39:58.938Z,77.33
2023-05-06T17:42:37.043Z,77.66
2023-05-06T17:45:16.100Z,77.91
2023-05-06T17:47:54.435Z,78.51
2023-05-06T17:50:32.415Z,78.09
2023-05-06T17:53:03.312Z,78.71
2023-05-06T17:55:42.266Z,78.17
2023-05-06T17:58:20.933Z,79.18
2023-05-06T18:00:59.740Z,79.05
2023-05-06T18:03:38.829Z,78.43
2023-05-06T18:06:17.063Z,77.81
2023-05-06T18:08:50.427Z,78.24
2023-05-06T18:11:25.264Z,78.35
2023-05-06T18:14:01.708Z,77.90
2023-05-06T18:16:39.869Z,77.54
2023-05-06T18:19:18.539Z,78.09
2023-05-06T18:21:58.618Z,78.30
2023-05-06T18:24:37.579Z,78.39
2023-05-06T18:27:16.493Z,78.06
2023-05-06T18:29:54.396Z,78.28
2023-05-06T18:32:29.864Z,78.35
2023-05-06T18:35:08.510Z,78.40
2023-05-06T18:37:47.044Z,78.63
2023-05-06T18:40:25.777Z,78.57
2023-05-06T18:43:04.237Z,78.59
2023-05-06T18:45:43.202Z,78.52
2023-05-06T18:48:21.547Z,79.22
2023-05-06T18:51:10.306Z,79.40
2023-05-06T18:53:49.726Z,78.81
2023-05-06T18:56:28.048Z,78.77
2023-05-06T18:59:06.747Z,79.33
2023-05-06T19:01:44.373Z,79.10
2023-05-06T19:04:22.565Z,78.92
2023-05-06T19:07:00.115Z,79.20
2023-05-06T19:09:38.740Z,78.99
2023-05-06T19:12:09.884Z,78.77
2023-05-06T19:14:47.189Z,79.20
2023-05-06T19:17:25.849Z,79.14
2023-05-06T19:20:03.318Z,79.12
2023-05-06T19:22:41.615Z,78.90
2023-05-06T19:25:19.537Z,78.66
2023-05-06T19:27:57.426Z,78.93
2023-05-06T19:30:38.099Z,79.19
2023-05-06T19:33:16.744Z,78.70
2023-05-06T19:35:54.967Z,78.83
2023-05-06T19:38:32.342Z,79.20
2023-05-06T19:41:03.440Z,78.88
2023-05-06T19:43:46.589Z,79.66
2023-05-06T19:46:25.136Z,79.33
2023-05-06T19:49:03.366Z,79.55
2023-05-06T19:51:41.653Z,79.20
2023-05-06T19:54:14.163Z,79.17
2023-05-06T19:56:48.989Z,78.60
2023-05-06T19:59:28.451Z,78.37
2023-05-06T20:02:06.095Z,78.54
2023-05-06T20:04:46.321Z,78.95
2023-05-06T20:07:25.247Z,78.51
2023-05-06T20:10:04.158Z,78.35
2023-05-06T20:12:35.818Z,78.20
2023-05-06T20:15:15.180Z,78.20
2023-05-06T20:17:53.558Z,78.44
2023-05-06T20:20:36.257Z,78.90
2023-05-06T20:23:14.985Z,78.26
2023-05-06T20:25:53.994Z,78.65
2023-05-06T20:28:31.895Z,77.80
2023-05-06T20:31:11.754Z,78.43
2023-05-06T20:33:51.132Z,78.36
2023-05-06T20:36:29.853Z,78.57
2023-05-06T20:39:10.529Z,78.37
2023-05-06T20:41:48.595Z,78.57
2023-05-06T20:44:21.648Z,78.59
2023-05-06T20:46:51.886Z,78.51
2023-05-06T20:49:30.873Z,78.31
2023-05-06T20:52:16.288Z,78.11
2023-05-06T20:54:51.301Z,78.46
2023-05-06T20:57:28.780Z,78.76
2023-05-06T21:00:08.149Z,78.73
2023-05-06T21:02:47.101Z,78.49
2023-05-06T21:05:25.674Z,78.44
2023-05-06T21:08:03.577Z,78.26
2023-05-06T21:10:42.434Z,78.08
2023-05-06T21:13:20.674Z,78.50
2023-05-06T21:15:59.410Z,78.75
2023-05-06T21:18:37.046Z,78.32
2023-05-06T21:21:15.831Z,78.61
2023-05-06T21:23:54.665Z,78.36
2023-05-06T21:26:34.802Z,78.02
2023-05-06T21:29:13.579Z,78.38
2023-05-06T21:31:50.679Z,78.27
2023-05-06T21:34:29.239Z,78.07
2023-05-06T21:37:07.492Z,78.12
2023-05-06T21:39:48.018Z,78.19
2023-05-06T21:42:27.358Z,78.07
2023-05-06T21:45:05.669Z,78.17
2023-05-06T21:47:36.846Z,77.89
2023-05-06T21:50:13.143Z,77.94
2023-05-06T21:52:51.024Z,78.18
2023-05-06T21:55:29.730Z,78.00
2023-05-06T21:58:00.181Z,77.97
2023-05-06T22:00:39.461Z,78.05
2023-05-06T22:03:17.522Z,77.98
2023-05-06T22:05:55.664Z,78.17
2023-05-06T22:08:34.141Z,77.78
2023-05-06T22:11:13.625Z,78.19
2023-05-06T22:13:45.663Z,78.01
2023-05-06T22:16:17.459Z,77.89
2023-05-06T22:18:48.922Z,78.18
2023-05-06T22:21:27.607Z,78.14
2023-05-06T22:24:06.037Z,78.15
2023-05-06T22:26:44.326Z,77.81
2023-05-06T22:29:22.864Z,77.59
2023-05-06T22:32:02.553Z,77.38
2023-05-06T22:34:41.844Z,77.56
2023-05-06T22:37:19.931Z,77.53
2023-05-06T22:39:59.862Z,77.74
2023-05-06T22:42:37.921Z,77.67
2023-05-06T22:45:10.601Z,77.62
2023-05-06T22:47:49.340Z,77.07
2023-05-06T22:50:27.197Z,77.42
2023-05-06T22:53:14.459Z,77.68
2023-05-06T22:56:01.542Z,77.61
2023-05-06T22:58:39.537Z,77.22
2023-05-06T23:01:18.186Z,77.33
2023-05-06T23:03:56.089Z,77.52
2023-05-06T23:06:37.187Z,77.11
2023-05-06T23:09:14.987Z,77.41
2023-05-06T23:11:53.122Z,77.44
2023-05-06T23:14:31.244Z,76.97
2023-05-06T23:17:09.934Z,76.82
2023-05-06T23:19:48.324Z,76.78
2023-05-06T23:22:18.480Z,77.60
2023-05-06T23:24:50.434Z,77.22
2023-05-06T23:27:29.261Z,77.13
2023-05-06T23:30:08.630Z,76.62
2023-05-06T23:32:47.591Z,76.78
2023-05-06T23:35:26.169Z,76.67
2023-05-06T23:38:04.132Z,76.72
2023-05-06T23:40:42.966Z,76.92
2023-05-06T23:43:21.148Z,76.91
2023-05-06T23:45:59.059Z,76.84
2023-05-06T23:48:38.097Z,76.94
2023-05-06T23:51:16.066Z,77.52
2023-05-06T23:53:53.380Z,77.20
2023-05-06T23:56:30.993Z,76.87
2023-05-06T23:59:09.933Z,77.13
